AAL535 KPHX-KEWR
Flight info
| Callsign | AAL535 |
|---|---|
| Flight time | 4h 3m |
| Altitude | 35000 |
| Route | BROAK1 MAXXO IRW ARG HITMN Q34 GVE PHLBO4 |
| Aircraft | A321/M-SDE3FGHIRWY/LB1 |
Departure
| Time | 2026-05-05 13:10 |
|---|---|
| Airport | Phoenix Sky Harbor International Airport (KPHX) |
Arrival
| Time | 2026-05-05 17:13 |
|---|---|
| Airport | Newark Liberty International Airport (KEWR) |
| Time | Latitude | Longitude | Altitude | Speed | Heading |
|---|---|---|---|---|---|
| 2026-05-05 12:24 | 33.43729 | -112.00248 | 1125 ft | 0 kts | 90° |
| 2026-05-05 12:33 | 33.43729 | -112.00239 | 1125 ft | 1 kts | 90° |
| 2026-05-05 12:33 | 33.43729 | -112.00247 | 1124 ft | 0 kts | 90° |
| 2026-05-05 12:44 | 33.43729 | -112.00248 | 1116 ft | 0 kts | 90° |
| 2026-05-05 12:56 | 33.43729 | -112.00264 | 1123 ft | 4 kts | 90° |
| 2026-05-05 12:57 | 33.43729 | -112.00289 | 1124 ft | 4 kts | 69° |
| 2026-05-05 12:57 | 33.43714 | -112.00300 | 1114 ft | 3 kts | 0° |
| 2026-05-05 12:57 | 33.43692 | -112.00300 | 1114 ft | 1 kts | 360° |
| 2026-05-05 12:57 | 33.43691 | -112.00300 | 1122 ft | 0 kts | 360° |
| 2026-05-05 13:03 | 33.43692 | -112.00300 | 1124 ft | 0 kts | 360° |
| 2026-05-05 13:03 | 33.43698 | -112.00300 | 1124 ft | 1 kts | 360° |
| 2026-05-05 13:03 | 33.43711 | -112.00300 | 1116 ft | 2 kts | 360° |
| 2026-05-05 13:03 | 33.43721 | -112.00310 | 1124 ft | 3 kts | 308° |
| 2026-05-05 13:04 | 33.43722 | -112.00338 | 1124 ft | 6 kts | 259° |
| 2026-05-05 13:04 | 33.43693 | -112.00376 | 1118 ft | 7 kts | 200° |
| 2026-05-05 13:04 | 33.43644 | -112.00380 | 1118 ft | 8 kts | 180° |
| 2026-05-05 13:04 | 33.43589 | -112.00380 | 1122 ft | 8 kts | 180° |
| 2026-05-05 13:05 | 33.43545 | -112.00380 | 1124 ft | 12 kts | 180° |
| 2026-05-05 13:05 | 33.43459 | -112.00380 | 1122 ft | 13 kts | 180° |
| 2026-05-05 13:05 | 33.43370 | -112.00380 | 1117 ft | 13 kts | 181° |
| 2026-05-05 13:05 | 33.43280 | -112.00381 | 1123 ft | 13 kts | 180° |
| 2026-05-05 13:06 | 33.43218 | -112.00327 | 1121 ft | 11 kts | 104° |
| 2026-05-05 13:06 | 33.43215 | -112.00232 | 1120 ft | 12 kts | 90° |
| 2026-05-05 13:06 | 33.43215 | -112.00133 | 1127 ft | 12 kts | 90° |
| 2026-05-05 13:06 | 33.43216 | -112.00027 | 1119 ft | 13 kts | 90° |
| 2026-05-05 13:07 | 33.43215 | -111.99931 | 1126 ft | 11 kts | 90° |
| 2026-05-05 13:07 | 33.43215 | -111.99835 | 1122 ft | 12 kts | 90° |
| 2026-05-05 13:07 | 33.43214 | -111.99735 | 1125 ft | 12 kts | 90° |
| 2026-05-05 13:07 | 33.43214 | -111.99632 | 1127 ft | 13 kts | 90° |
| 2026-05-05 13:08 | 33.43213 | -111.99524 | 1127 ft | 13 kts | 90° |
| 2026-05-05 13:08 | 33.43213 | -111.99410 | 1127 ft | 14 kts | 90° |
| 2026-05-05 13:08 | 33.43172 | -111.99332 | 1133 ft | 10 kts | 165° |
| 2026-05-05 13:08 | 33.43122 | -111.99347 | 1132 ft | 6 kts | 218° |
| 2026-05-05 13:09 | 33.43104 | -111.99396 | 1135 ft | 7 kts | 261° |
| 2026-05-05 13:09 | 33.43099 | -111.99524 | 1132 ft | 42 kts | 269° |
| 2026-05-05 13:09 | 33.43100 | -112.00180 | 1132 ft | 113 kts | 270° |
| 2026-05-05 13:09 | 33.43088 | -112.01362 | 1130 ft | 170 kts | 268° |
| 2026-05-05 13:10 | 33.43078 | -112.02874 | 1583 ft | 186 kts | 269° |
| 2026-05-05 13:10 | 33.43081 | -112.04422 | 2397 ft | 185 kts | 268° |
| 2026-05-05 13:10 | 33.43014 | -112.05967 | 3083 ft | 190 kts | 265° |
| 2026-05-05 13:10 | 33.42884 | -112.07618 | 3258 ft | 210 kts | 257° |
| 2026-05-05 13:11 | 33.42328 | -112.09324 | 3381 ft | 233 kts | 246° |
| 2026-05-05 13:11 | 33.41683 | -112.11210 | 3576 ft | 256 kts | 248° |
| 2026-05-05 13:11 | 33.41026 | -112.13245 | 4040 ft | 267 kts | 249° |
| 2026-05-05 13:11 | 33.40372 | -112.15333 | 4681 ft | 270 kts | 249° |
| 2026-05-05 13:12 | 33.39525 | -112.17332 | 5303 ft | 271 kts | 227° |
| 2026-05-05 13:12 | 33.37959 | -112.18526 | 5907 ft | 271 kts | 193° |
| 2026-05-05 13:12 | 33.36081 | -112.18571 | 6509 ft | 273 kts | 170° |
| 2026-05-05 13:12 | 33.34230 | -112.17988 | 7136 ft | 276 kts | 161° |
| 2026-05-05 13:13 | 33.32417 | -112.17195 | 7760 ft | 279 kts | 159° |
| 2026-05-05 13:13 | 33.30599 | -112.16356 | 8360 ft | 282 kts | 158° |
| 2026-05-05 13:13 | 33.28901 | -112.15166 | 8940 ft | 286 kts | 143° |
| 2026-05-05 13:13 | 33.27449 | -112.13530 | 9515 ft | 290 kts | 135° |
| 2026-05-05 13:14 | 33.26078 | -112.11746 | 10098 ft | 293 kts | 130° |
| 2026-05-05 13:14 | 33.25023 | -112.09640 | 10416 ft | 312 kts | 116° |
| 2026-05-05 13:14 | 33.24490 | -112.07041 | 10549 ft | 335 kts | 97° |
| 2026-05-05 13:14 | 33.24658 | -112.04181 | 10667 ft | 356 kts | 84° |
| 2026-05-05 13:15 | 33.25029 | -112.01194 | 10956 ft | 368 kts | 84° |
| 2026-05-05 13:15 | 33.25394 | -111.98152 | 11400 ft | 373 kts | 85° |
| 2026-05-05 13:15 | 33.25784 | -111.95059 | 11844 ft | 380 kts | 82° |
| 2026-05-05 13:15 | 33.26553 | -111.91997 | 12250 ft | 390 kts | 70° |
| 2026-05-05 13:16 | 33.27772 | -111.89074 | 12708 ft | 395 kts | 64° |
| 2026-05-05 13:16 | 33.29064 | -111.86155 | 13199 ft | 399 kts | 64° |
| 2026-05-05 13:16 | 33.30362 | -111.83208 | 13691 ft | 402 kts | 64° |
| 2026-05-05 13:16 | 33.31663 | -111.80239 | 14165 ft | 405 kts | 65° |
| 2026-05-05 13:17 | 33.32974 | -111.77237 | 14635 ft | 408 kts | 64° |
| 2026-05-05 13:17 | 33.34291 | -111.74215 | 15077 ft | 411 kts | 65° |
| 2026-05-05 13:17 | 33.35619 | -111.71166 | 15537 ft | 414 kts | 65° |
| 2026-05-05 13:17 | 33.36951 | -111.68102 | 15989 ft | 417 kts | 65° |
| 2026-05-05 13:18 | 33.38291 | -111.65020 | 16441 ft | 420 kts | 65° |
| 2026-05-05 13:18 | 33.39680 | -111.61836 | 15425 ft | 459 kts | 65° |
| 2026-05-05 13:18 | 33.41140 | -111.58322 | 15357 ft | 474 kts | 65° |
| 2026-05-05 13:18 | 33.42602 | -111.54848 | 16341 ft | 457 kts | 68° |
| 2026-05-05 13:19 | 33.43756 | -111.51447 | 17482 ft | 438 kts | 71° |
| 2026-05-05 13:19 | 33.44869 | -111.48034 | 18219 ft | 432 kts | 72° |
| 2026-05-05 13:19 | 33.45932 | -111.44712 | 18607 ft | 434 kts | 72° |
| 2026-05-05 13:19 | 33.47004 | -111.41317 | 18971 ft | 437 kts | 72° |
| 2026-05-05 13:20 | 33.48076 | -111.37898 | 19276 ft | 441 kts | 72° |
| 2026-05-05 13:20 | 33.49162 | -111.34433 | 19593 ft | 445 kts | 72° |
| 2026-05-05 13:20 | 33.50254 | -111.30948 | 19931 ft | 448 kts | 72° |
| 2026-05-05 13:20 | 33.51354 | -111.27437 | 20256 ft | 451 kts | 72° |
| 2026-05-05 13:21 | 33.52459 | -111.23901 | 20587 ft | 455 kts | 72° |
| 2026-05-05 13:21 | 33.53563 | -111.20336 | 20911 ft | 458 kts | 73° |
| 2026-05-05 13:21 | 33.54625 | -111.16727 | 21175 ft | 462 kts | 74° |
| 2026-05-05 13:21 | 33.55656 | -111.13058 | 21467 ft | 466 kts | 75° |
| 2026-05-05 13:22 | 33.56665 | -111.09359 | 21778 ft | 468 kts | 76° |
| 2026-05-05 13:22 | 33.57676 | -111.05632 | 22038 ft | 472 kts | 75° |
| 2026-05-05 13:22 | 33.58701 | -111.01874 | 22283 ft | 476 kts | 75° |
| 2026-05-05 13:22 | 33.59744 | -110.98092 | 22565 ft | 479 kts | 75° |
| 2026-05-05 13:23 | 33.60803 | -110.94290 | 22845 ft | 482 kts | 75° |
| 2026-05-05 13:23 | 33.61869 | -110.90477 | 23087 ft | 485 kts | 75° |
| 2026-05-05 13:23 | 33.62943 | -110.86624 | 23339 ft | 488 kts | 75° |
| 2026-05-05 13:23 | 33.64022 | -110.82753 | 23601 ft | 491 kts | 75° |
| 2026-05-05 13:24 | 33.65106 | -110.78857 | 23916 ft | 493 kts | 76° |
| 2026-05-05 13:24 | 33.66191 | -110.74939 | 24193 ft | 496 kts | 76° |
| 2026-05-05 13:24 | 33.67278 | -110.70998 | 24461 ft | 499 kts | 76° |
| 2026-05-05 13:24 | 33.68372 | -110.67028 | 24707 ft | 502 kts | 76° |
| 2026-05-05 13:25 | 33.69469 | -110.63047 | 24976 ft | 504 kts | 76° |
| 2026-05-05 13:25 | 33.70575 | -110.59039 | 25240 ft | 506 kts | 76° |
| 2026-05-05 13:25 | 33.71683 | -110.55012 | 25454 ft | 509 kts | 76° |
| 2026-05-05 13:25 | 33.72799 | -110.50965 | 25699 ft | 512 kts | 75° |
| 2026-05-05 13:26 | 33.73922 | -110.46895 | 25930 ft | 514 kts | 76° |
| 2026-05-05 13:26 | 33.75031 | -110.42864 | 26135 ft | 517 kts | 75° |
| 2026-05-05 13:26 | 33.76173 | -110.38705 | 26348 ft | 519 kts | 76° |
| 2026-05-05 13:26 | 33.77286 | -110.34636 | 26598 ft | 520 kts | 76° |
| 2026-05-05 13:27 | 33.78418 | -110.30493 | 26784 ft | 522 kts | 76° |
| 2026-05-05 13:27 | 33.79552 | -110.26338 | 27026 ft | 524 kts | 76° |
| 2026-05-05 13:27 | 33.80688 | -110.22164 | 27231 ft | 527 kts | 75° |
| 2026-05-05 13:27 | 33.81828 | -110.17968 | 27418 ft | 529 kts | 76° |
| 2026-05-05 13:28 | 33.82968 | -110.13751 | 27628 ft | 531 kts | 75° |
| 2026-05-05 13:28 | 33.84111 | -110.09522 | 27841 ft | 533 kts | 76° |
| 2026-05-05 13:28 | 33.85258 | -110.05271 | 28051 ft | 536 kts | 75° |
| 2026-05-05 13:28 | 33.86413 | -110.00997 | 28248 ft | 538 kts | 75° |
| 2026-05-05 13:29 | 33.87576 | -109.96701 | 28443 ft | 540 kts | 75° |
| 2026-05-05 13:29 | 33.88738 | -109.92404 | 28647 ft | 542 kts | 75° |
| 2026-05-05 13:29 | 33.89907 | -109.88073 | 28827 ft | 544 kts | 75° |
| 2026-05-05 13:29 | 33.91074 | -109.83730 | 29019 ft | 547 kts | 75° |
| 2026-05-05 13:30 | 33.92238 | -109.79368 | 29205 ft | 548 kts | 75° |
| 2026-05-05 13:30 | 33.93403 | -109.74993 | 29359 ft | 550 kts | 75° |
| 2026-05-05 13:30 | 33.94576 | -109.70597 | 29510 ft | 552 kts | 75° |
| 2026-05-05 13:30 | 33.95754 | -109.66185 | 29672 ft | 554 kts | 75° |
| 2026-05-05 13:31 | 33.96935 | -109.61759 | 29821 ft | 556 kts | 75° |
| 2026-05-05 13:31 | 33.98118 | -109.57326 | 29962 ft | 557 kts | 75° |
| 2026-05-05 13:31 | 33.99303 | -109.52869 | 30089 ft | 559 kts | 75° |
| 2026-05-05 13:31 | 34.00488 | -109.48402 | 30212 ft | 561 kts | 75° |
| 2026-05-05 13:32 | 34.01679 | -109.43918 | 30410 ft | 561 kts | 75° |
| 2026-05-05 13:32 | 34.02861 | -109.39446 | 30622 ft | 560 kts | 75° |
| 2026-05-05 13:32 | 34.04038 | -109.34967 | 30823 ft | 560 kts | 75° |
| 2026-05-05 13:32 | 34.05214 | -109.30486 | 30981 ft | 561 kts | 75° |
| 2026-05-05 13:33 | 34.06391 | -109.26009 | 31151 ft | 561 kts | 75° |
| 2026-05-05 13:33 | 34.07571 | -109.21529 | 31348 ft | 561 kts | 75° |
| 2026-05-05 13:33 | 34.08739 | -109.17102 | 31519 ft | 561 kts | 75° |
| 2026-05-05 13:33 | 34.09913 | -109.12617 | 31685 ft | 561 kts | 75° |
| 2026-05-05 13:34 | 34.11081 | -109.08126 | 31847 ft | 562 kts | 75° |
| 2026-05-05 13:34 | 34.12247 | -109.03627 | 32022 ft | 562 kts | 76° |
| 2026-05-05 13:34 | 34.13417 | -108.99121 | 32195 ft | 562 kts | 75° |
| 2026-05-05 13:34 | 34.14592 | -108.94609 | 32348 ft | 563 kts | 75° |
| 2026-05-05 13:35 | 34.15769 | -108.90104 | 32497 ft | 564 kts | 75° |
| 2026-05-05 13:35 | 34.16948 | -108.85580 | 32653 ft | 564 kts | 75° |
| 2026-05-05 13:35 | 34.18121 | -108.81048 | 32794 ft | 565 kts | 76° |
| 2026-05-05 13:35 | 34.19289 | -108.76512 | 32931 ft | 565 kts | 76° |
| 2026-05-05 13:36 | 34.20451 | -108.71981 | 33069 ft | 566 kts | 76° |
| 2026-05-05 13:36 | 34.21616 | -108.67430 | 33200 ft | 567 kts | 76° |
| 2026-05-05 13:36 | 34.22784 | -108.62875 | 33326 ft | 568 kts | 76° |
| 2026-05-05 13:36 | 34.23955 | -108.58317 | 33462 ft | 568 kts | 76° |
| 2026-05-05 13:37 | 34.25128 | -108.53750 | 33588 ft | 569 kts | 76° |
| 2026-05-05 13:37 | 34.26287 | -108.49238 | 33711 ft | 571 kts | 76° |
| 2026-05-05 13:37 | 34.27478 | -108.44588 | 33844 ft | 571 kts | 76° |
| 2026-05-05 13:37 | 34.28647 | -108.40000 | 33969 ft | 572 kts | 76° |
| 2026-05-05 13:38 | 34.29812 | -108.35396 | 34090 ft | 573 kts | 76° |
| 2026-05-05 13:38 | 34.30976 | -108.30789 | 34222 ft | 573 kts | 76° |
| 2026-05-05 13:38 | 34.32141 | -108.26174 | 34344 ft | 574 kts | 76° |
| 2026-05-05 13:38 | 34.33307 | -108.21552 | 34482 ft | 574 kts | 76° |
| 2026-05-05 13:39 | 34.34473 | -108.16931 | 34636 ft | 574 kts | 76° |
| 2026-05-05 13:39 | 34.35639 | -108.12313 | 34789 ft | 574 kts | 76° |
| 2026-05-05 13:39 | 34.36789 | -108.07760 | 34962 ft | 573 kts | 76° |
| 2026-05-05 13:39 | 34.37840 | -108.03114 | 35045 ft | 570 kts | 83° |
| 2026-05-05 13:40 | 34.38535 | -107.93698 | 35056 ft | 558 kts | 96° |
| 2026-05-05 13:40 | 34.38614 | -107.84291 | 35042 ft | 559 kts | 96° |
| 2026-05-05 13:41 | 34.38723 | -107.74878 | 35034 ft | 559 kts | 96° |
| 2026-05-05 13:41 | 34.38835 | -107.65465 | 35036 ft | 559 kts | 96° |
| 2026-05-05 13:42 | 34.38929 | -107.56063 | 35042 ft | 559 kts | 96° |
| 2026-05-05 13:42 | 34.39016 | -107.46660 | 35050 ft | 559 kts | 96° |
| 2026-05-05 13:43 | 34.39087 | -107.37255 | 35054 ft | 558 kts | 95° |
| 2026-05-05 13:43 | 34.39147 | -107.27850 | 35051 ft | 558 kts | 96° |
| 2026-05-05 13:44 | 34.39208 | -107.18454 | 35049 ft | 558 kts | 95° |
| 2026-05-05 13:44 | 34.39264 | -107.09117 | 35045 ft | 558 kts | 95° |
| 2026-05-05 13:45 | 34.39307 | -106.99739 | 35041 ft | 557 kts | 95° |
| 2026-05-05 13:45 | 34.39338 | -106.90353 | 35044 ft | 557 kts | 95° |
| 2026-05-05 13:46 | 34.39374 | -106.80968 | 35044 ft | 557 kts | 95° |
| 2026-05-05 13:46 | 34.39417 | -106.71593 | 35044 ft | 559 kts | 92° |
| 2026-05-05 13:47 | 34.40461 | -106.62202 | 35041 ft | 564 kts | 83° |
| 2026-05-05 13:47 | 34.41815 | -106.52849 | 35041 ft | 564 kts | 83° |
| 2026-05-05 13:48 | 34.43174 | -106.43483 | 35046 ft | 565 kts | 83° |
| 2026-05-05 13:48 | 34.44508 | -106.34113 | 35053 ft | 565 kts | 84° |
| 2026-05-05 13:49 | 34.45829 | -106.24737 | 35050 ft | 565 kts | 84° |
| 2026-05-05 13:49 | 34.47148 | -106.15361 | 35058 ft | 564 kts | 84° |
| 2026-05-05 13:50 | 34.48445 | -106.06040 | 35062 ft | 565 kts | 84° |
| 2026-05-05 13:50 | 34.49756 | -105.96600 | 35060 ft | 564 kts | 84° |
| 2026-05-05 13:51 | 34.51043 | -105.87291 | 35066 ft | 564 kts | 83° |
| 2026-05-05 13:51 | 34.52344 | -105.77855 | 35071 ft | 564 kts | 83° |
| 2026-05-05 13:52 | 34.53624 | -105.68537 | 35070 ft | 563 kts | 83° |
| 2026-05-05 13:52 | 34.54893 | -105.59159 | 35065 ft | 563 kts | 83° |
| 2026-05-05 13:53 | 34.56157 | -105.49790 | 35053 ft | 563 kts | 83° |
| 2026-05-05 13:53 | 34.57209 | -105.41938 | 35045 ft | 563 kts | 83° |
| 2026-05-05 13:54 | 34.58460 | -105.32563 | 35039 ft | 563 kts | 83° |
| 2026-05-05 13:54 | 34.59702 | -105.23185 | 35031 ft | 563 kts | 83° |
| 2026-05-05 13:55 | 34.60928 | -105.13865 | 35020 ft | 563 kts | 83° |
| 2026-05-05 13:55 | 34.62168 | -105.04477 | 35011 ft | 563 kts | 83° |
| 2026-05-05 13:56 | 34.63392 | -104.95085 | 35000 ft | 564 kts | 83° |
| 2026-05-05 13:56 | 34.64605 | -104.85679 | 34994 ft | 564 kts | 83° |
| 2026-05-05 13:57 | 34.65816 | -104.76287 | 34982 ft | 563 kts | 83° |
| 2026-05-05 13:57 | 34.67020 | -104.66883 | 34977 ft | 563 kts | 83° |
| 2026-05-05 13:58 | 34.68214 | -104.57474 | 34972 ft | 563 kts | 83° |
| 2026-05-05 13:58 | 34.69399 | -104.48060 | 34966 ft | 563 kts | 83° |
| 2026-05-05 13:59 | 34.71168 | -104.33944 | 34961 ft | 563 kts | 83° |
| 2026-05-05 14:00 | 34.72925 | -104.19808 | 34964 ft | 564 kts | 83° |
| 2026-05-05 14:00 | 34.74084 | -104.10377 | 34961 ft | 564 kts | 83° |
| 2026-05-05 14:01 | 34.75239 | -104.00942 | 34963 ft | 564 kts | 83° |
| 2026-05-05 14:01 | 34.76385 | -103.91491 | 34958 ft | 565 kts | 83° |
| 2026-05-05 14:02 | 34.77522 | -103.82035 | 34958 ft | 566 kts | 83° |
| 2026-05-05 14:02 | 34.78660 | -103.72543 | 34960 ft | 566 kts | 83° |
| 2026-05-05 14:03 | 34.79790 | -103.63064 | 34962 ft | 566 kts | 83° |
| 2026-05-05 14:03 | 34.80906 | -103.53637 | 34962 ft | 566 kts | 83° |
| 2026-05-05 14:04 | 34.82014 | -103.44143 | 34957 ft | 566 kts | 83° |
| 2026-05-05 14:04 | 34.83118 | -103.34656 | 34959 ft | 566 kts | 83° |
| 2026-05-05 14:05 | 34.84224 | -103.25172 | 34956 ft | 566 kts | 83° |
| 2026-05-05 14:05 | 34.85319 | -103.15673 | 34958 ft | 566 kts | 83° |
| 2026-05-05 14:06 | 34.86395 | -103.06180 | 34958 ft | 566 kts | 83° |
| 2026-05-05 14:06 | 34.87471 | -102.96670 | 34957 ft | 566 kts | 83° |
| 2026-05-05 14:07 | 34.88544 | -102.87164 | 34962 ft | 567 kts | 83° |
| 2026-05-05 14:07 | 34.89612 | -102.77649 | 34964 ft | 567 kts | 83° |
| 2026-05-05 14:08 | 34.90670 | -102.68125 | 34963 ft | 567 kts | 83° |
| 2026-05-05 14:08 | 34.91715 | -102.58590 | 34956 ft | 568 kts | 83° |
| 2026-05-05 14:09 | 34.92754 | -102.49049 | 34953 ft | 568 kts | 83° |
| 2026-05-05 14:09 | 34.93793 | -102.39497 | 34965 ft | 569 kts | 83° |
| 2026-05-05 14:10 | 34.94824 | -102.29940 | 34970 ft | 569 kts | 83° |
| 2026-05-05 14:10 | 34.95841 | -102.20380 | 34973 ft | 569 kts | 83° |
| 2026-05-05 14:11 | 34.96852 | -102.10886 | 34973 ft | 569 kts | 83° |
| 2026-05-05 14:11 | 34.97861 | -102.01317 | 34967 ft | 569 kts | 83° |
| 2026-05-05 14:12 | 34.98861 | -101.91756 | 34957 ft | 569 kts | 82° |
| 2026-05-05 14:12 | 34.99855 | -101.82184 | 34955 ft | 569 kts | 82° |
| 2026-05-05 14:13 | 35.00834 | -101.72607 | 34948 ft | 569 kts | 83° |
| 2026-05-05 14:13 | 35.01806 | -101.63021 | 34947 ft | 569 kts | 83° |
| 2026-05-05 14:14 | 35.02776 | -101.53447 | 34943 ft | 569 kts | 83° |
| 2026-05-05 14:14 | 35.03742 | -101.43857 | 34944 ft | 569 kts | 82° |
| 2026-05-05 14:15 | 35.04701 | -101.34266 | 34945 ft | 570 kts | 82° |
| 2026-05-05 14:15 | 35.05653 | -101.24658 | 34932 ft | 570 kts | 83° |
| 2026-05-05 14:16 | 35.06596 | -101.15044 | 34925 ft | 570 kts | 83° |
| 2026-05-05 14:16 | 35.07529 | -101.05425 | 34924 ft | 570 kts | 82° |
| 2026-05-05 14:17 | 35.08454 | -100.95810 | 34920 ft | 571 kts | 83° |
| 2026-05-05 14:17 | 35.09369 | -100.86183 | 34912 ft | 570 kts | 83° |
| 2026-05-05 14:18 | 35.10279 | -100.76551 | 34909 ft | 571 kts | 83° |
| 2026-05-05 14:18 | 35.11185 | -100.66922 | 34902 ft | 570 kts | 82° |
| 2026-05-05 14:19 | 35.12077 | -100.57299 | 34897 ft | 571 kts | 83° |
| 2026-05-05 14:19 | 35.12964 | -100.47656 | 34891 ft | 571 kts | 83° |
| 2026-05-05 14:20 | 35.13844 | -100.38007 | 34892 ft | 571 kts | 83° |
| 2026-05-05 14:20 | 35.14711 | -100.28418 | 34878 ft | 572 kts | 83° |
| 2026-05-05 14:21 | 35.15586 | -100.18751 | 34857 ft | 573 kts | 83° |
| 2026-05-05 14:21 | 35.16462 | -100.09076 | 34842 ft | 572 kts | 83° |
| 2026-05-05 14:22 | 35.17311 | -99.99413 | 34836 ft | 572 kts | 83° |
| 2026-05-05 14:22 | 35.18145 | -99.89745 | 34833 ft | 572 kts | 83° |
| 2026-05-05 14:23 | 35.18987 | -99.80076 | 34825 ft | 572 kts | 83° |
| 2026-05-05 14:23 | 35.19822 | -99.70410 | 34829 ft | 572 kts | 83° |
| 2026-05-05 14:24 | 35.20647 | -99.60746 | 34823 ft | 572 kts | 83° |
| 2026-05-05 14:24 | 35.21453 | -99.51073 | 34828 ft | 571 kts | 83° |
| 2026-05-05 14:25 | 35.22257 | -99.41414 | 34815 ft | 571 kts | 83° |
| 2026-05-05 14:25 | 35.23063 | -99.31752 | 34812 ft | 571 kts | 83° |
| 2026-05-05 14:26 | 35.23847 | -99.22150 | 34807 ft | 571 kts | 83° |
| 2026-05-05 14:26 | 35.24621 | -99.12492 | 34807 ft | 570 kts | 83° |
| 2026-05-05 14:27 | 35.25394 | -99.02829 | 34792 ft | 570 kts | 83° |
| 2026-05-05 14:27 | 35.26164 | -98.93180 | 34792 ft | 569 kts | 83° |
| 2026-05-05 14:28 | 35.26930 | -98.83524 | 34788 ft | 570 kts | 83° |
| 2026-05-05 14:28 | 35.27681 | -98.73861 | 34787 ft | 570 kts | 83° |
| 2026-05-05 14:29 | 35.28417 | -98.64266 | 34788 ft | 570 kts | 83° |
| 2026-05-05 14:29 | 35.29143 | -98.54613 | 34793 ft | 569 kts | 83° |
| 2026-05-05 14:30 | 35.29871 | -98.44975 | 34784 ft | 569 kts | 83° |
| 2026-05-05 14:30 | 35.30594 | -98.35315 | 34773 ft | 569 kts | 83° |
| 2026-05-05 14:31 | 35.31296 | -98.25668 | 34757 ft | 570 kts | 83° |
| 2026-05-05 14:31 | 35.32000 | -98.16003 | 34750 ft | 570 kts | 83° |
| 2026-05-05 14:32 | 35.32707 | -98.06340 | 34741 ft | 570 kts | 83° |
| 2026-05-05 14:32 | 35.33396 | -97.96681 | 34737 ft | 569 kts | 83° |
| 2026-05-05 14:33 | 35.34075 | -97.87024 | 34737 ft | 569 kts | 83° |
| 2026-05-05 14:33 | 35.34741 | -97.77372 | 34732 ft | 570 kts | 83° |
| 2026-05-05 14:34 | 35.35401 | -97.67699 | 34719 ft | 570 kts | 83° |
| 2026-05-05 14:34 | 35.36260 | -97.58077 | 34717 ft | 566 kts | 77° |
| 2026-05-05 14:35 | 35.37619 | -97.48575 | 34718 ft | 566 kts | 77° |
| 2026-05-05 14:35 | 35.38953 | -97.39078 | 34711 ft | 566 kts | 77° |
| 2026-05-05 14:36 | 35.40265 | -97.29573 | 34714 ft | 565 kts | 77° |
| 2026-05-05 14:36 | 35.41582 | -97.20076 | 34707 ft | 565 kts | 77° |
| 2026-05-05 14:37 | 35.42898 | -97.10569 | 34709 ft | 565 kts | 77° |
| 2026-05-05 14:37 | 35.44200 | -97.01048 | 34721 ft | 565 kts | 77° |
| 2026-05-05 14:38 | 35.45478 | -96.91593 | 34722 ft | 566 kts | 77° |
| 2026-05-05 14:38 | 35.46766 | -96.82068 | 34731 ft | 565 kts | 77° |
| 2026-05-05 14:39 | 35.48047 | -96.72551 | 34732 ft | 566 kts | 77° |
| 2026-05-05 14:39 | 35.49107 | -96.64634 | 34733 ft | 566 kts | 77° |
| 2026-05-05 14:40 | 35.50367 | -96.55114 | 34733 ft | 565 kts | 77° |
| 2026-05-05 14:40 | 35.51622 | -96.45588 | 34735 ft | 565 kts | 77° |
| 2026-05-05 14:41 | 35.52875 | -96.36066 | 34740 ft | 565 kts | 78° |
| 2026-05-05 14:41 | 35.54115 | -96.26552 | 34738 ft | 565 kts | 77° |
| 2026-05-05 14:42 | 35.55354 | -96.17022 | 34742 ft | 565 kts | 78° |
| 2026-05-05 14:42 | 35.56579 | -96.07485 | 34749 ft | 565 kts | 78° |
| 2026-05-05 14:43 | 35.57800 | -95.97954 | 34749 ft | 565 kts | 78° |
| 2026-05-05 14:43 | 35.59015 | -95.88408 | 34759 ft | 565 kts | 78° |
| 2026-05-05 14:44 | 35.60221 | -95.78860 | 34757 ft | 566 kts | 78° |
| 2026-05-05 14:44 | 35.61417 | -95.69309 | 34764 ft | 565 kts | 78° |
| 2026-05-05 14:45 | 35.62606 | -95.59763 | 34772 ft | 565 kts | 78° |
| 2026-05-05 14:45 | 35.63783 | -95.50222 | 34786 ft | 564 kts | 78° |
| 2026-05-05 14:46 | 35.64960 | -95.40685 | 34798 ft | 564 kts | 78° |
| 2026-05-05 14:46 | 35.66116 | -95.31149 | 34804 ft | 564 kts | 78° |
| 2026-05-05 14:47 | 35.67270 | -95.21626 | 34797 ft | 562 kts | 78° |
| 2026-05-05 14:47 | 35.68416 | -95.12111 | 34800 ft | 561 kts | 78° |
| 2026-05-05 14:48 | 35.69549 | -95.02694 | 34798 ft | 560 kts | 78° |
| 2026-05-05 14:48 | 35.70681 | -94.93198 | 34805 ft | 560 kts | 78° |
| 2026-05-05 14:49 | 35.71801 | -94.83710 | 34803 ft | 559 kts | 77° |
| 2026-05-05 14:49 | 35.72907 | -94.74251 | 34805 ft | 558 kts | 78° |
| 2026-05-05 14:50 | 35.74009 | -94.64807 | 34801 ft | 558 kts | 77° |
| 2026-05-05 14:50 | 35.75095 | -94.55363 | 34806 ft | 556 kts | 78° |
| 2026-05-05 14:51 | 35.76169 | -94.45940 | 34806 ft | 556 kts | 78° |
| 2026-05-05 14:51 | 35.77240 | -94.36509 | 34803 ft | 556 kts | 78° |
| 2026-05-05 14:52 | 35.78311 | -94.27086 | 34812 ft | 555 kts | 78° |
| 2026-05-05 14:52 | 35.79378 | -94.17669 | 34820 ft | 555 kts | 78° |
| 2026-05-05 14:53 | 35.80434 | -94.08259 | 34814 ft | 554 kts | 78° |
| 2026-05-05 14:53 | 35.81465 | -93.98908 | 34813 ft | 554 kts | 78° |
| 2026-05-05 14:54 | 35.82488 | -93.89489 | 34802 ft | 555 kts | 78° |
| 2026-05-05 14:54 | 35.83515 | -93.80051 | 34821 ft | 556 kts | 78° |
| 2026-05-05 14:55 | 35.84546 | -93.70604 | 34835 ft | 556 kts | 78° |
| 2026-05-05 14:55 | 35.85564 | -93.61144 | 34836 ft | 556 kts | 78° |
| 2026-05-05 14:56 | 35.86564 | -93.51717 | 34834 ft | 554 kts | 78° |
| 2026-05-05 14:56 | 35.87564 | -93.42289 | 34839 ft | 555 kts | 78° |
| 2026-05-05 14:57 | 35.88555 | -93.32872 | 34848 ft | 552 kts | 78° |
| 2026-05-05 14:57 | 35.89535 | -93.23480 | 34839 ft | 551 kts | 78° |
| 2026-05-05 14:58 | 35.90506 | -93.14085 | 34846 ft | 551 kts | 78° |
| 2026-05-05 14:58 | 35.91474 | -93.04711 | 34852 ft | 550 kts | 78° |
| 2026-05-05 14:59 | 35.92421 | -92.95357 | 34862 ft | 549 kts | 77° |
| 2026-05-05 14:59 | 35.93355 | -92.86026 | 34857 ft | 547 kts | 77° |
| 2026-05-05 15:00 | 35.94127 | -92.78285 | 34853 ft | 547 kts | 77° |
| 2026-05-05 15:00 | 35.95214 | -92.67412 | 34867 ft | 546 kts | 77° |
| 2026-05-05 15:01 | 35.96139 | -92.58135 | 34867 ft | 544 kts | 77° |
| 2026-05-05 15:01 | 35.97046 | -92.48876 | 34869 ft | 542 kts | 77° |
| 2026-05-05 15:02 | 35.97932 | -92.39635 | 34866 ft | 541 kts | 77° |
| 2026-05-05 15:02 | 35.98811 | -92.30476 | 34868 ft | 540 kts | 77° |
| 2026-05-05 15:03 | 35.99705 | -92.21279 | 34863 ft | 538 kts | 77° |
| 2026-05-05 15:03 | 36.00582 | -92.12088 | 34866 ft | 538 kts | 77° |
| 2026-05-05 15:04 | 36.01437 | -92.02923 | 34857 ft | 538 kts | 77° |
| 2026-05-05 15:04 | 36.02283 | -91.93755 | 34851 ft | 537 kts | 77° |
| 2026-05-05 15:05 | 36.03543 | -91.80018 | 34845 ft | 536 kts | 77° |
| 2026-05-05 15:06 | 36.04385 | -91.70871 | 34847 ft | 536 kts | 77° |
| 2026-05-05 15:06 | 36.05222 | -91.61764 | 34841 ft | 537 kts | 77° |
| 2026-05-05 15:07 | 36.06045 | -91.52590 | 34844 ft | 538 kts | 77° |
| 2026-05-05 15:07 | 36.06853 | -91.43400 | 34845 ft | 538 kts | 77° |
| 2026-05-05 15:08 | 36.07660 | -91.34200 | 34847 ft | 538 kts | 77° |
| 2026-05-05 15:08 | 36.08468 | -91.24989 | 34838 ft | 539 kts | 77° |
| 2026-05-05 15:09 | 36.09266 | -91.15755 | 34842 ft | 540 kts | 77° |
| 2026-05-05 15:09 | 36.10053 | -91.06511 | 34837 ft | 541 kts | 77° |
| 2026-05-05 15:10 | 36.10834 | -90.97249 | 34837 ft | 542 kts | 80° |
| 2026-05-05 15:10 | 36.11375 | -90.87930 | 34831 ft | 546 kts | 84° |
| 2026-05-05 15:11 | 36.11530 | -90.78516 | 34838 ft | 548 kts | 86° |
| 2026-05-05 15:11 | 36.11596 | -90.69106 | 34846 ft | 547 kts | 85° |
| 2026-05-05 15:12 | 36.11764 | -90.59748 | 34860 ft | 547 kts | 84° |
| 2026-05-05 15:12 | 36.12001 | -90.50337 | 34869 ft | 547 kts | 84° |
| 2026-05-05 15:13 | 36.12211 | -90.40929 | 34877 ft | 547 kts | 84° |
| 2026-05-05 15:13 | 36.12382 | -90.31520 | 34880 ft | 547 kts | 85° |
| 2026-05-05 15:14 | 36.12541 | -90.22119 | 34880 ft | 547 kts | 84° |
| 2026-05-05 15:14 | 36.12710 | -90.12712 | 34881 ft | 547 kts | 84° |
| 2026-05-05 15:15 | 36.12875 | -90.03302 | 34879 ft | 547 kts | 84° |
| 2026-05-05 15:15 | 36.13025 | -89.93896 | 34875 ft | 546 kts | 84° |
| 2026-05-05 15:16 | 36.13161 | -89.84496 | 34873 ft | 547 kts | 84° |
| 2026-05-05 15:16 | 36.13294 | -89.75094 | 34875 ft | 547 kts | 85° |
| 2026-05-05 15:17 | 36.13420 | -89.65670 | 34873 ft | 547 kts | 85° |
| 2026-05-05 15:17 | 36.13541 | -89.56267 | 34879 ft | 547 kts | 85° |
| 2026-05-05 15:18 | 36.13655 | -89.46864 | 34883 ft | 546 kts | 85° |
| 2026-05-05 15:18 | 36.13769 | -89.37471 | 34891 ft | 545 kts | 85° |
| 2026-05-05 15:19 | 36.13868 | -89.28090 | 34893 ft | 545 kts | 85° |
| 2026-05-05 15:19 | 36.13952 | -89.18712 | 34896 ft | 544 kts | 85° |
| 2026-05-05 15:20 | 36.14031 | -89.09352 | 34908 ft | 544 kts | 85° |
| 2026-05-05 15:20 | 36.14112 | -89.00007 | 34914 ft | 543 kts | 85° |
| 2026-05-05 15:21 | 36.14184 | -88.90729 | 34915 ft | 543 kts | 84° |
| 2026-05-05 15:21 | 36.14246 | -88.81389 | 34918 ft | 542 kts | 84° |
| 2026-05-05 15:22 | 36.14298 | -88.72053 | 34924 ft | 541 kts | 84° |
| 2026-05-05 15:22 | 36.14337 | -88.62747 | 34939 ft | 541 kts | 84° |
| 2026-05-05 15:23 | 36.14382 | -88.53441 | 34946 ft | 540 kts | 84° |
| 2026-05-05 15:23 | 36.14413 | -88.45724 | 34946 ft | 540 kts | 84° |
| 2026-05-05 15:24 | 36.14442 | -88.36436 | 34948 ft | 540 kts | 84° |
| 2026-05-05 15:24 | 36.14461 | -88.27142 | 34957 ft | 540 kts | 84° |
| 2026-05-05 15:25 | 36.14462 | -88.17869 | 34955 ft | 539 kts | 84° |
| 2026-05-05 15:25 | 36.14462 | -88.08587 | 34961 ft | 538 kts | 84° |
| 2026-05-05 15:26 | 36.14463 | -87.99332 | 34960 ft | 537 kts | 84° |
| 2026-05-05 15:26 | 36.14457 | -87.90102 | 34960 ft | 538 kts | 84° |
| 2026-05-05 15:27 | 36.14446 | -87.80900 | 34968 ft | 538 kts | 84° |
| 2026-05-05 15:27 | 36.14414 | -87.71663 | 34968 ft | 537 kts | 84° |
| 2026-05-05 15:28 | 36.14378 | -87.62413 | 34967 ft | 537 kts | 84° |
| 2026-05-05 15:28 | 36.14345 | -87.53164 | 34971 ft | 537 kts | 84° |
| 2026-05-05 15:29 | 36.14308 | -87.43927 | 34963 ft | 537 kts | 85° |
| 2026-05-05 15:29 | 36.14262 | -87.34665 | 34967 ft | 537 kts | 85° |
| 2026-05-05 15:30 | 36.14207 | -87.25417 | 34970 ft | 538 kts | 85° |
| 2026-05-05 15:30 | 36.14134 | -87.16157 | 34969 ft | 539 kts | 85° |
| 2026-05-05 15:31 | 36.14057 | -87.06942 | 34979 ft | 539 kts | 85° |
| 2026-05-05 15:31 | 36.13974 | -86.97664 | 34983 ft | 539 kts | 85° |
| 2026-05-05 15:32 | 36.13888 | -86.88393 | 34984 ft | 540 kts | 85° |
| 2026-05-05 15:32 | 36.13789 | -86.79102 | 34995 ft | 540 kts | 85° |
| 2026-05-05 15:33 | 36.14043 | -86.69878 | 34995 ft | 530 kts | 73° |
| 2026-05-05 15:33 | 36.16016 | -86.61298 | 35009 ft | 510 kts | 57° |
| 2026-05-05 15:34 | 36.18704 | -86.53157 | 35015 ft | 513 kts | 59° |
| 2026-05-05 15:34 | 36.21346 | -86.44952 | 35020 ft | 513 kts | 58° |
| 2026-05-05 15:35 | 36.23975 | -86.36720 | 35043 ft | 513 kts | 58° |
| 2026-05-05 15:35 | 36.26594 | -86.28536 | 35035 ft | 510 kts | 59° |
| 2026-05-05 15:36 | 36.29223 | -86.20386 | 35020 ft | 507 kts | 57° |
| 2026-05-05 15:36 | 36.31837 | -86.12271 | 35010 ft | 509 kts | 58° |
| 2026-05-05 15:37 | 36.34445 | -86.04119 | 35003 ft | 508 kts | 57° |
| 2026-05-05 15:37 | 36.37031 | -85.95981 | 35004 ft | 507 kts | 58° |
| 2026-05-05 15:38 | 36.39596 | -85.87830 | 34981 ft | 503 kts | 59° |
| 2026-05-05 15:38 | 36.42157 | -85.79722 | 34984 ft | 505 kts | 58° |
| 2026-05-05 15:39 | 36.44726 | -85.71593 | 35003 ft | 507 kts | 58° |
| 2026-05-05 15:39 | 36.47290 | -85.63443 | 35001 ft | 507 kts | 58° |
| 2026-05-05 15:40 | 36.49860 | -85.55276 | 35000 ft | 508 kts | 58° |
| 2026-05-05 15:40 | 36.52420 | -85.47081 | 35004 ft | 509 kts | 59° |
| 2026-05-05 15:41 | 36.54978 | -85.38869 | 35008 ft | 509 kts | 58° |
| 2026-05-05 15:41 | 36.57514 | -85.30711 | 35004 ft | 509 kts | 59° |
| 2026-05-05 15:42 | 36.60068 | -85.22491 | 35015 ft | 510 kts | 59° |
| 2026-05-05 15:42 | 36.62622 | -85.14254 | 35019 ft | 510 kts | 59° |
| 2026-05-05 15:43 | 36.65164 | -85.06012 | 35023 ft | 510 kts | 59° |
| 2026-05-05 15:43 | 36.67702 | -84.97757 | 35022 ft | 509 kts | 59° |
| 2026-05-05 15:44 | 36.70228 | -84.89506 | 35028 ft | 510 kts | 59° |
| 2026-05-05 15:44 | 36.72748 | -84.81249 | 35038 ft | 510 kts | 59° |
| 2026-05-05 15:45 | 36.75262 | -84.73000 | 35042 ft | 509 kts | 59° |
| 2026-05-05 15:45 | 36.77780 | -84.64724 | 35043 ft | 510 kts | 59° |
| 2026-05-05 15:46 | 36.80287 | -84.56447 | 35035 ft | 510 kts | 59° |
| 2026-05-05 15:46 | 36.82783 | -84.48178 | 35040 ft | 509 kts | 59° |
| 2026-05-05 15:47 | 36.85273 | -84.39905 | 35039 ft | 509 kts | 59° |
| 2026-05-05 15:47 | 36.87753 | -84.31630 | 35032 ft | 508 kts | 59° |
| 2026-05-05 15:48 | 36.90234 | -84.23357 | 35031 ft | 508 kts | 59° |
| 2026-05-05 15:48 | 36.92693 | -84.15121 | 35039 ft | 509 kts | 59° |
| 2026-05-05 15:49 | 36.95155 | -84.06843 | 35038 ft | 508 kts | 60° |
| 2026-05-05 15:49 | 36.97607 | -83.98566 | 35035 ft | 507 kts | 59° |
| 2026-05-05 15:50 | 37.00055 | -83.90301 | 35040 ft | 506 kts | 60° |
| 2026-05-05 15:50 | 37.02488 | -83.82037 | 35041 ft | 506 kts | 60° |
| 2026-05-05 15:51 | 37.04919 | -83.73776 | 35042 ft | 505 kts | 60° |
| 2026-05-05 15:51 | 37.07342 | -83.65517 | 35043 ft | 505 kts | 60° |
| 2026-05-05 15:52 | 37.09752 | -83.57269 | 35039 ft | 505 kts | 60° |
| 2026-05-05 15:52 | 37.12159 | -83.49002 | 35044 ft | 506 kts | 60° |
| 2026-05-05 15:53 | 37.14565 | -83.40727 | 35053 ft | 506 kts | 61° |
| 2026-05-05 15:53 | 37.16964 | -83.32440 | 35057 ft | 505 kts | 60° |
| 2026-05-05 15:54 | 37.19353 | -83.24165 | 35060 ft | 505 kts | 60° |
| 2026-05-05 15:54 | 37.21729 | -83.15882 | 35054 ft | 504 kts | 61° |
| 2026-05-05 15:55 | 37.24096 | -83.07615 | 35053 ft | 503 kts | 61° |
| 2026-05-05 15:55 | 37.26456 | -82.99367 | 35056 ft | 501 kts | 61° |
| 2026-05-05 15:56 | 37.28808 | -82.91140 | 35061 ft | 500 kts | 61° |
| 2026-05-05 15:56 | 37.31154 | -82.82907 | 35054 ft | 500 kts | 60° |
| 2026-05-05 15:57 | 37.33484 | -82.74682 | 35066 ft | 500 kts | 61° |
| 2026-05-05 15:57 | 37.35803 | -82.66449 | 35064 ft | 499 kts | 61° |
| 2026-05-05 15:58 | 37.38118 | -82.58226 | 35072 ft | 499 kts | 61° |
| 2026-05-05 15:58 | 37.40414 | -82.50026 | 35061 ft | 497 kts | 62° |
| 2026-05-05 15:59 | 37.42710 | -82.41840 | 35048 ft | 495 kts | 62° |
| 2026-05-05 15:59 | 37.45002 | -82.33663 | 35047 ft | 495 kts | 61° |
| 2026-05-05 16:00 | 37.47281 | -82.25476 | 35044 ft | 496 kts | 62° |
| 2026-05-05 16:00 | 37.48388 | -82.21473 | 35053 ft | 496 kts | 62° |
| 2026-05-05 16:01 | 37.50654 | -82.13273 | 35054 ft | 496 kts | 62° |
| 2026-05-05 16:01 | 37.52919 | -82.05081 | 35057 ft | 496 kts | 62° |
| 2026-05-05 16:02 | 37.55174 | -81.96876 | 35059 ft | 495 kts | 62° |
| 2026-05-05 16:02 | 37.57420 | -81.88684 | 35064 ft | 494 kts | 62° |
| 2026-05-05 16:03 | 37.59669 | -81.80502 | 35079 ft | 494 kts | 62° |
| 2026-05-05 16:03 | 37.61906 | -81.72319 | 35090 ft | 493 kts | 63° |
| 2026-05-05 16:04 | 37.64125 | -81.64144 | 35105 ft | 493 kts | 63° |
| 2026-05-05 16:04 | 37.66321 | -81.56023 | 35110 ft | 492 kts | 63° |
| 2026-05-05 16:05 | 37.68526 | -81.47854 | 35114 ft | 491 kts | 63° |
| 2026-05-05 16:05 | 37.70724 | -81.39695 | 35116 ft | 490 kts | 63° |
| 2026-05-05 16:06 | 37.72917 | -81.31538 | 35119 ft | 490 kts | 63° |
| 2026-05-05 16:06 | 37.75095 | -81.23399 | 35117 ft | 488 kts | 64° |
| 2026-05-05 16:07 | 37.77242 | -81.15275 | 35106 ft | 488 kts | 65° |
| 2026-05-05 16:07 | 37.78416 | -81.06716 | 35104 ft | 500 kts | 79° |
| 2026-05-05 16:08 | 37.78999 | -80.97971 | 35104 ft | 499 kts | 79° |
| 2026-05-05 16:08 | 37.79573 | -80.89260 | 35105 ft | 497 kts | 79° |
| 2026-05-05 16:09 | 37.80147 | -80.80575 | 35103 ft | 495 kts | 79° |
| 2026-05-05 16:09 | 37.80622 | -80.73382 | 35102 ft | 493 kts | 79° |
| 2026-05-05 16:10 | 37.81188 | -80.64771 | 35103 ft | 490 kts | 79° |
| 2026-05-05 16:10 | 37.81737 | -80.56185 | 35107 ft | 489 kts | 79° |
| 2026-05-05 16:11 | 37.82277 | -80.47619 | 35105 ft | 487 kts | 79° |
| 2026-05-05 16:12 | 37.83340 | -80.30621 | 35103 ft | 483 kts | 80° |
| 2026-05-05 16:13 | 37.84595 | -80.09533 | 35095 ft | 479 kts | 80° |
| 2026-05-05 16:13 | 37.85098 | -80.01139 | 35089 ft | 479 kts | 80° |
| 2026-05-05 16:14 | 37.86073 | -79.84340 | 35100 ft | 478 kts | 80° |
| 2026-05-05 16:15 | 37.86971 | -79.67532 | 35112 ft | 479 kts | 82° |
| 2026-05-05 16:16 | 37.87463 | -79.50723 | 35104 ft | 479 kts | 83° |
| 2026-05-05 16:17 | 37.87874 | -79.38103 | 35094 ft | 478 kts | 83° |
| 2026-05-05 16:18 | 37.88924 | -79.25636 | 35080 ft | 473 kts | 76° |
| 2026-05-05 16:19 | 37.90375 | -79.13282 | 35069 ft | 473 kts | 77° |
| 2026-05-05 16:19 | 37.91802 | -79.00932 | 35058 ft | 472 kts | 77° |
| 2026-05-05 16:20 | 37.93685 | -78.84521 | 35051 ft | 471 kts | 78° |
| 2026-05-05 16:22 | 37.96002 | -78.63975 | 35041 ft | 470 kts | 79° |
| 2026-05-05 16:23 | 37.97843 | -78.47560 | 35034 ft | 470 kts | 79° |
| 2026-05-05 16:23 | 37.99205 | -78.35274 | 35029 ft | 469 kts | 79° |
| 2026-05-05 16:24 | 38.00096 | -78.27093 | 35027 ft | 468 kts | 80° |
| 2026-05-05 16:25 | 38.01968 | -78.15059 | 35027 ft | 462 kts | 65° |
| 2026-05-05 16:25 | 38.05022 | -78.07973 | 35023 ft | 457 kts | 54° |
| 2026-05-05 16:25 | 38.06728 | -78.04569 | 35019 ft | 457 kts | 54° |
| 2026-05-05 16:26 | 38.13511 | -77.90919 | 35018 ft | 457 kts | 54° |
| 2026-05-05 16:27 | 38.16895 | -77.84070 | 35019 ft | 458 kts | 54° |
| 2026-05-05 16:27 | 38.20279 | -77.77211 | 35023 ft | 457 kts | 54° |
| 2026-05-05 16:28 | 38.23663 | -77.70350 | 35020 ft | 458 kts | 54° |
| 2026-05-05 16:28 | 38.27039 | -77.63474 | 35016 ft | 458 kts | 55° |
| 2026-05-05 16:29 | 38.30417 | -77.56591 | 35014 ft | 459 kts | 55° |
| 2026-05-05 16:29 | 38.33798 | -77.49690 | 35012 ft | 459 kts | 55° |
| 2026-05-05 16:30 | 38.37166 | -77.42791 | 35002 ft | 459 kts | 55° |
| 2026-05-05 16:30 | 38.40539 | -77.35879 | 35012 ft | 459 kts | 55° |
| 2026-05-05 16:31 | 38.43914 | -77.28970 | 35000 ft | 459 kts | 55° |
| 2026-05-05 16:31 | 38.47262 | -77.22081 | 35002 ft | 460 kts | 55° |
| 2026-05-05 16:32 | 38.50631 | -77.15127 | 35002 ft | 461 kts | 56° |
| 2026-05-05 16:32 | 38.53985 | -77.08167 | 34987 ft | 461 kts | 56° |
| 2026-05-05 16:33 | 38.57355 | -77.01186 | 34987 ft | 462 kts | 56° |
| 2026-05-05 16:33 | 38.60736 | -76.94183 | 34983 ft | 462 kts | 56° |
| 2026-05-05 16:34 | 38.64107 | -76.87167 | 34993 ft | 463 kts | 56° |
| 2026-05-05 16:34 | 38.67478 | -76.80144 | 34983 ft | 463 kts | 56° |
| 2026-05-05 16:35 | 38.70845 | -76.73089 | 34986 ft | 464 kts | 56° |
| 2026-05-05 16:35 | 38.74342 | -76.66178 | 34984 ft | 461 kts | 48° |
| 2026-05-05 16:36 | 38.78979 | -76.60638 | 34981 ft | 455 kts | 34° |
| 2026-05-05 16:36 | 38.84026 | -76.55722 | 34980 ft | 456 kts | 34° |
| 2026-05-05 16:37 | 38.89070 | -76.50782 | 34969 ft | 458 kts | 34° |
| 2026-05-05 16:37 | 38.94115 | -76.45823 | 34959 ft | 461 kts | 34° |
| 2026-05-05 16:38 | 38.99216 | -76.40807 | 34629 ft | 463 kts | 34° |
| 2026-05-05 16:38 | 39.01793 | -76.38274 | 33773 ft | 468 kts | 34° |
| 2026-05-05 16:38 | 39.04345 | -76.35671 | 33125 ft | 468 kts | 37° |
| 2026-05-05 16:39 | 39.06802 | -76.32948 | 32505 ft | 464 kts | 39° |
| 2026-05-05 16:39 | 39.09166 | -76.30168 | 31451 ft | 457 kts | 40° |
| 2026-05-05 16:39 | 39.11464 | -76.27380 | 30347 ft | 451 kts | 41° |
| 2026-05-05 16:39 | 39.13725 | -76.24623 | 29370 ft | 442 kts | 41° |
| 2026-05-05 16:40 | 39.15904 | -76.21989 | 29045 ft | 417 kts | 40° |
| 2026-05-05 16:40 | 39.18020 | -76.19472 | 28625 ft | 412 kts | 40° |
| 2026-05-05 16:40 | 39.20137 | -76.16994 | 28224 ft | 408 kts | 40° |
| 2026-05-05 16:40 | 39.22239 | -76.14556 | 27808 ft | 404 kts | 39° |
| 2026-05-05 16:41 | 39.24320 | -76.12146 | 27410 ft | 400 kts | 39° |
| 2026-05-05 16:41 | 39.26378 | -76.09751 | 27014 ft | 396 kts | 40° |
| 2026-05-05 16:41 | 39.28412 | -76.07372 | 26656 ft | 394 kts | 40° |
| 2026-05-05 16:41 | 39.30462 | -76.04966 | 26313 ft | 401 kts | 40° |
| 2026-05-05 16:42 | 39.32520 | -76.02541 | 25961 ft | 401 kts | 40° |
| 2026-05-05 16:42 | 39.34579 | -76.00111 | 25610 ft | 400 kts | 40° |
| 2026-05-05 16:42 | 39.36624 | -75.97695 | 25265 ft | 398 kts | 40° |
| 2026-05-05 16:42 | 39.38665 | -75.95291 | 24917 ft | 396 kts | 40° |
| 2026-05-05 16:43 | 39.40695 | -75.92896 | 24567 ft | 394 kts | 40° |
| 2026-05-05 16:43 | 39.42714 | -75.90512 | 24233 ft | 392 kts | 40° |
| 2026-05-05 16:43 | 39.44724 | -75.88143 | 23888 ft | 390 kts | 40° |
| 2026-05-05 16:43 | 39.46722 | -75.85781 | 23549 ft | 388 kts | 40° |
| 2026-05-05 16:44 | 39.48712 | -75.83421 | 23210 ft | 387 kts | 40° |
| 2026-05-05 16:44 | 39.50687 | -75.81077 | 22870 ft | 385 kts | 40° |
| 2026-05-05 16:44 | 39.52631 | -75.78771 | 22529 ft | 383 kts | 39° |
| 2026-05-05 16:44 | 39.54594 | -75.76444 | 22200 ft | 382 kts | 39° |
| 2026-05-05 16:45 | 39.56550 | -75.74126 | 21870 ft | 380 kts | 39° |
| 2026-05-05 16:45 | 39.58498 | -75.71813 | 21540 ft | 379 kts | 39° |
| 2026-05-05 16:45 | 39.60436 | -75.69511 | 21211 ft | 377 kts | 39° |
| 2026-05-05 16:45 | 39.62371 | -75.67212 | 20881 ft | 376 kts | 39° |
| 2026-05-05 16:46 | 39.64292 | -75.64924 | 20560 ft | 374 kts | 39° |
| 2026-05-05 16:46 | 39.66204 | -75.62641 | 20229 ft | 373 kts | 39° |
| 2026-05-05 16:46 | 39.68113 | -75.60362 | 19905 ft | 372 kts | 39° |
| 2026-05-05 16:46 | 39.70008 | -75.58086 | 19522 ft | 370 kts | 39° |
| 2026-05-05 16:47 | 39.71893 | -75.55814 | 19139 ft | 368 kts | 39° |
| 2026-05-05 16:47 | 39.73768 | -75.53554 | 18770 ft | 367 kts | 39° |
| 2026-05-05 16:47 | 39.75635 | -75.51307 | 18396 ft | 365 kts | 39° |
| 2026-05-05 16:47 | 39.77493 | -75.49069 | 18006 ft | 363 kts | 39° |
| 2026-05-05 16:48 | 39.79343 | -75.46837 | 17690 ft | 361 kts | 39° |
| 2026-05-05 16:48 | 39.81160 | -75.44644 | 17373 ft | 360 kts | 40° |
| 2026-05-05 16:48 | 39.82993 | -75.42428 | 17003 ft | 359 kts | 39° |
| 2026-05-05 16:48 | 39.84817 | -75.40222 | 16630 ft | 358 kts | 40° |
| 2026-05-05 16:49 | 39.86637 | -75.38021 | 16259 ft | 356 kts | 40° |
| 2026-05-05 16:49 | 39.88471 | -75.35800 | 15887 ft | 354 kts | 40° |
| 2026-05-05 16:49 | 39.90250 | -75.33644 | 15527 ft | 354 kts | 40° |
| 2026-05-05 16:49 | 39.92048 | -75.31461 | 15166 ft | 352 kts | 40° |
| 2026-05-05 16:50 | 39.93831 | -75.29290 | 14808 ft | 351 kts | 40° |
| 2026-05-05 16:50 | 39.95611 | -75.27123 | 14464 ft | 350 kts | 40° |
| 2026-05-05 16:50 | 39.97389 | -75.24961 | 14101 ft | 349 kts | 40° |
| 2026-05-05 16:50 | 39.99158 | -75.22812 | 13736 ft | 347 kts | 40° |
| 2026-05-05 16:51 | 40.00920 | -75.20667 | 13383 ft | 346 kts | 40° |
| 2026-05-05 16:51 | 40.02675 | -75.18526 | 13033 ft | 346 kts | 40° |
| 2026-05-05 16:51 | 40.04434 | -75.16381 | 12688 ft | 345 kts | 40° |
| 2026-05-05 16:51 | 40.06182 | -75.14246 | 12327 ft | 344 kts | 40° |
| 2026-05-05 16:52 | 40.07926 | -75.12117 | 11968 ft | 343 kts | 41° |
| 2026-05-05 16:52 | 40.09665 | -75.09994 | 11640 ft | 342 kts | 41° |
| 2026-05-05 16:52 | 40.11397 | -75.07877 | 11290 ft | 340 kts | 41° |
| 2026-05-05 16:52 | 40.13117 | -75.05770 | 10934 ft | 338 kts | 41° |
| 2026-05-05 16:53 | 40.14833 | -75.03671 | 10623 ft | 337 kts | 41° |
| 2026-05-05 16:53 | 40.16540 | -75.01581 | 10326 ft | 335 kts | 41° |
| 2026-05-05 16:53 | 40.18224 | -74.99520 | 10015 ft | 330 kts | 41° |
| 2026-05-05 16:53 | 40.19894 | -74.97476 | 9699 ft | 328 kts | 41° |
| 2026-05-05 16:54 | 40.21546 | -74.95449 | 9397 ft | 325 kts | 41° |
| 2026-05-05 16:54 | 40.22643 | -74.94100 | 9198 ft | 326 kts | 41° |
| 2026-05-05 16:54 | 40.24288 | -74.92077 | 8890 ft | 324 kts | 41° |
| 2026-05-05 16:54 | 40.25912 | -74.90048 | 8568 ft | 322 kts | 43° |
| 2026-05-05 16:55 | 40.27473 | -74.87948 | 8284 ft | 321 kts | 45° |
| 2026-05-05 16:55 | 40.28994 | -74.85803 | 7994 ft | 320 kts | 46° |
| 2026-05-05 16:55 | 40.30486 | -74.83659 | 7900 ft | 319 kts | 46° |
| 2026-05-05 16:55 | 40.31985 | -74.81503 | 7768 ft | 318 kts | 46° |
| 2026-05-05 16:56 | 40.33478 | -74.79369 | 7650 ft | 317 kts | 46° |
| 2026-05-05 16:56 | 40.34971 | -74.77251 | 7534 ft | 316 kts | 46° |
| 2026-05-05 16:56 | 40.36466 | -74.75135 | 7418 ft | 316 kts | 46° |
| 2026-05-05 16:56 | 40.37964 | -74.73025 | 7295 ft | 315 kts | 46° |
| 2026-05-05 16:57 | 40.39460 | -74.70925 | 7167 ft | 315 kts | 46° |
| 2026-05-05 16:57 | 40.40979 | -74.68863 | 6940 ft | 312 kts | 39° |
| 2026-05-05 16:57 | 40.42746 | -74.67272 | 6602 ft | 306 kts | 24° |
| 2026-05-05 16:57 | 40.44718 | -74.66312 | 6232 ft | 299 kts | 8° |
| 2026-05-05 16:58 | 40.46755 | -74.65774 | 5869 ft | 298 kts | 7° |
| 2026-05-05 16:58 | 40.48779 | -74.65241 | 5493 ft | 297 kts | 7° |
| 2026-05-05 16:58 | 40.50796 | -74.64700 | 5132 ft | 295 kts | 7° |
| 2026-05-05 16:58 | 40.52788 | -74.64161 | 4983 ft | 293 kts | 7° |
| 2026-05-05 16:59 | 40.54789 | -74.63622 | 4988 ft | 293 kts | 7° |
| 2026-05-05 16:59 | 40.56770 | -74.63088 | 4993 ft | 294 kts | 7° |
| 2026-05-05 16:59 | 40.58780 | -74.62551 | 4982 ft | 294 kts | 7° |
| 2026-05-05 16:59 | 40.60782 | -74.62016 | 4969 ft | 294 kts | 7° |
| 2026-05-05 17:00 | 40.62812 | -74.61474 | 4969 ft | 293 kts | 7° |
| 2026-05-05 17:00 | 40.64786 | -74.60937 | 4970 ft | 293 kts | 7° |
| 2026-05-05 17:00 | 40.66789 | -74.60395 | 4975 ft | 295 kts | 8° |
| 2026-05-05 17:00 | 40.68823 | -74.59847 | 4972 ft | 294 kts | 8° |
| 2026-05-05 17:01 | 40.70831 | -74.59309 | 4981 ft | 294 kts | 7° |
| 2026-05-05 17:01 | 40.72839 | -74.58768 | 4986 ft | 294 kts | 8° |
| 2026-05-05 17:01 | 40.74839 | -74.58226 | 4994 ft | 294 kts | 7° |
| 2026-05-05 17:01 | 40.76842 | -74.57691 | 4982 ft | 294 kts | 7° |
| 2026-05-05 17:02 | 40.78822 | -74.57156 | 4978 ft | 294 kts | 7° |
| 2026-05-05 17:02 | 40.80828 | -74.56619 | 4986 ft | 295 kts | 8° |
| 2026-05-05 17:02 | 40.82843 | -74.56080 | 4991 ft | 295 kts | 8° |
| 2026-05-05 17:02 | 40.84854 | -74.55542 | 4982 ft | 295 kts | 8° |
| 2026-05-05 17:03 | 40.86864 | -74.55003 | 4979 ft | 295 kts | 7° |
| 2026-05-05 17:03 | 40.88861 | -74.54462 | 4986 ft | 295 kts | 8° |
| 2026-05-05 17:03 | 40.90883 | -74.53907 | 4984 ft | 294 kts | 7° |
| 2026-05-05 17:03 | 40.92862 | -74.53221 | 4976 ft | 298 kts | 21° |
| 2026-05-05 17:04 | 40.94530 | -74.51604 | 4980 ft | 300 kts | 50° |
| 2026-05-05 17:04 | 40.95528 | -74.49204 | 4987 ft | 298 kts | 73° |
| 2026-05-05 17:04 | 40.96114 | -74.46572 | 4988 ft | 298 kts | 77° |
| 2026-05-05 17:04 | 40.96655 | -74.43880 | 4327 ft | 311 kts | 77° |
| 2026-05-05 17:05 | 40.97212 | -74.41086 | 3504 ft | 310 kts | 77° |
| 2026-05-05 17:05 | 40.97744 | -74.38463 | 3221 ft | 286 kts | 77° |
| 2026-05-05 17:05 | 40.98237 | -74.36003 | 3091 ft | 259 kts | 80° |
| 2026-05-05 17:05 | 40.98303 | -74.33795 | 2976 ft | 235 kts | 110° |
| 2026-05-05 17:06 | 40.97820 | -74.31746 | 2999 ft | 234 kts | 116° |
| 2026-05-05 17:06 | 40.97252 | -74.29734 | 2990 ft | 233 kts | 117° |
| 2026-05-05 17:06 | 40.96666 | -74.27728 | 2987 ft | 235 kts | 118° |
| 2026-05-05 17:06 | 40.96074 | -74.25714 | 2980 ft | 234 kts | 117° |
| 2026-05-05 17:07 | 40.95477 | -74.23700 | 2986 ft | 236 kts | 117° |
| 2026-05-05 17:07 | 40.94875 | -74.21686 | 2979 ft | 236 kts | 117° |
| 2026-05-05 17:07 | 40.94270 | -74.19670 | 2989 ft | 236 kts | 117° |
| 2026-05-05 17:07 | 40.93667 | -74.17660 | 2984 ft | 234 kts | 117° |
| 2026-05-05 17:08 | 40.93064 | -74.15668 | 2979 ft | 233 kts | 117° |
| 2026-05-05 17:08 | 40.92371 | -74.13756 | 2975 ft | 226 kts | 134° |
| 2026-05-05 17:08 | 40.91271 | -74.12311 | 2997 ft | 220 kts | 146° |
| 2026-05-05 17:08 | 40.90119 | -74.11033 | 2991 ft | 215 kts | 147° |
| 2026-05-05 17:09 | 40.88981 | -74.09774 | 2981 ft | 213 kts | 147° |
| 2026-05-05 17:09 | 40.87834 | -74.08567 | 2985 ft | 206 kts | 157° |
| 2026-05-05 17:09 | 40.86530 | -74.07990 | 2970 ft | 193 kts | 174° |
| 2026-05-05 17:09 | 40.85193 | -74.07694 | 2526 ft | 204 kts | 176° |
| 2026-05-05 17:10 | 40.83672 | -74.07563 | 2481 ft | 233 kts | 188° |
| 2026-05-05 17:10 | 40.82134 | -74.08238 | 2497 ft | 228 kts | 206° |
| 2026-05-05 17:10 | 40.80765 | -74.09126 | 2361 ft | 214 kts | 206° |
| 2026-05-05 17:10 | 40.79442 | -74.09979 | 2108 ft | 209 kts | 205° |
| 2026-05-05 17:11 | 40.78149 | -74.10805 | 1820 ft | 201 kts | 204° |
| 2026-05-05 17:11 | 40.76950 | -74.11570 | 1596 ft | 184 kts | 205° |
| 2026-05-05 17:11 | 40.75858 | -74.12266 | 1353 ft | 163 kts | 205° |
| 2026-05-05 17:11 | 40.74909 | -74.12871 | 1148 ft | 146 kts | 206° |
| 2026-05-05 17:12 | 40.74021 | -74.13437 | 953 ft | 140 kts | 206° |
| 2026-05-05 17:12 | 40.73158 | -74.13987 | 775 ft | 137 kts | 205° |
| 2026-05-05 17:12 | 40.72297 | -74.14535 | 592 ft | 136 kts | 206° |
| 2026-05-05 17:12 | 40.71445 | -74.15078 | 405 ft | 135 kts | 208° |
| 2026-05-05 17:13 | 40.70585 | -74.15625 | 229 ft | 140 kts | 207° |
| 2026-05-05 17:13 | 40.69722 | -74.16174 | 49 ft | 139 kts | 206° |
| 2026-05-05 17:13 | 40.68954 | -74.16665 | 23 ft | 88 kts | 205° |
| 2026-05-05 17:13 | 40.68662 | -74.16853 | 22 ft | 22 kts | 210° |
| 2026-05-05 17:14 | 40.68543 | -74.16986 | 22 ft | 23 kts | 237° |
| 2026-05-05 17:14 | 40.68464 | -74.17164 | 23 ft | 22 kts | 256° |
| 2026-05-05 17:14 | 40.68489 | -74.17360 | 24 ft | 23 kts | 291° |
| 2026-05-05 17:14 | 40.68523 | -74.17449 | 23 ft | 8 kts | 302° |
| 2026-05-05 17:15 | 40.68570 | -74.17509 | 24 ft | 11 kts | 321° |
| 2026-05-05 17:15 | 40.68644 | -74.17523 | 24 ft | 12 kts | 9° |
| 2026-05-05 17:15 | 40.68680 | -74.17597 | 24 ft | 11 kts | 269° |
| 2026-05-05 17:15 | 40.68644 | -74.17688 | 24 ft | 12 kts | 258° |
| 2026-05-05 17:16 | 40.68580 | -74.17795 | 23 ft | 20 kts | 213° |
| 2026-05-05 17:16 | 40.68439 | -74.17879 | 22 ft | 24 kts | 207° |
| 2026-05-05 17:16 | 40.68337 | -74.18037 | 22 ft | 23 kts | 220° |
| 2026-05-05 17:16 | 40.68228 | -74.18178 | 22 ft | 22 kts | 264° |
| 2026-05-05 17:17 | 40.68242 | -74.18385 | 22 ft | 23 kts | 274° |
| 2026-05-05 17:17 | 40.68248 | -74.18513 | 22 ft | 7 kts | 273° |
| 2026-05-05 17:17 | 40.68271 | -74.18566 | 23 ft | 6 kts | 356° |
| 2026-05-05 17:17 | 40.68317 | -74.18563 | 23 ft | 0 kts | 5° |
| 2026-05-05 17:18 | 40.68314 | -74.18564 | 22 ft | 2 kts | 5° |
| 2026-05-05 17:18 | 40.68313 | -74.18564 | 22 ft | 0 kts | 5° |